Choir, Mongolia
Current Conditions -  °F | °C
As of 4:30 PM on Tuesday 27 Jan 2015 (Local Time) from ZMUB Reporting Station
Clear Clear  
Wind Chill:   Ceiling: Unl
Heat Index:   Visibility: 4mi
Dew Point: -11°   Wind: 0mph
Humidity: 44%   Direction: NA
Pressure: 30.27"   Gusts: NA
Location:  46.45°N, 108.22°E
Report Text: ZMUB 270830Z 00000MPS 6000NW NSC M14/M24 Q1025 NOSIG RMK QFE660.4 40 NW MO
Loading
Personal Weather Stations






























Interactive Weather Map New forecast layout! Learn more

10-Day Weather Forecast

Advertisements
Track Severe Weather on mobile